Flight Track Log - Related Links

Times and Time Zones

All times are in EDT time to prevent confusion due to time zone crossing. See the N566UA flight status page for this flight to view local times or setup timezone preferences in your user account.

Time Position Orientation Groundspeed Altitude Reporting Facility
EDT Latitude Longitude Course Direction KTS MPH feet Rate Location/Type
Thu 10:33:21 PM 38.8647 -77.5058 270° West 241 277 4,600  Level Washington Center
Thu 10:34:21 PM 38.8239 -77.5822 236° Southwest 263 303 6,700 1,200 Climbing Washington Center
Thu 10:35:00 PM 38.7898 -77.9425 288° West  Level FlightAware Approximate
Thu 10:35:21 PM 38.7811 -77.6503 231° Southwest 275 316 7,000  Level Washington Center
Thu 10:36:00 PM 38.8242 -78.0798 288° West  Level FlightAware Approximate
Thu 10:36:22 PM 38.7669 -77.7431 259° West 268 308 9,300  Level Washington Center
Thu 10:37:00 PM 38.8500 -78.2189 270° West  Level FlightAware Approximate
Thu 10:37:22 PM 38.7736 -77.8417 275° West 268 308 10,700  Level Washington Center
Thu 10:38:00 PM 38.8500 -78.3633 270° West  Level FlightAware Approximate
Thu 10:38:21 PM 38.7881 -77.9486 280° West 285 328 12,600  Level Washington Center
Thu 10:39:22 PM 38.8172 -78.0561 289° West 306 352 15,100 1,884 Climbing Washington Center
Thu 10:40:22 PM 38.8461 -78.1772 287° West 326 375 16,400 950 Climbing Washington Center
Thu 10:41:22 PM 38.8517 -78.3025 273° West 346 398 17,000 1,664 Climbing Washington Center
Thu 10:42:21 PM 38.8489 -78.4250 268° West 351 404 19,700 2,600 Climbing Washington Center
Thu 10:43:22 PM 38.8481 -78.5422 270° West 344 396 22,200 1,835 Climbing Washington Center
Thu 10:44:22 PM 38.8472 -78.6622 270° West 339 390 23,400 1,300 Climbing Washington Center
Thu 10:45:22 PM 38.8458 -78.7956 269° West 354 407 24,800 1,500 Climbing Washington Center
Thu 10:46:22 PM 38.8444 -78.9233 269° West 365 420 26,400 1,311 Climbing Washington Center
Thu 10:47:21 PM 38.8406 -79.0617 268° West 377 434 27,400 1,100 Climbing Washington Center
Thu 10:48:22 PM 38.8383 -79.2056 269° West 397 457 28,600 1,240 Climbing Washington Center
Thu 10:49:22 PM 38.8358 -79.3547 269° West 412 474 29,900 1,300 Climbing Washington Center
Thu 10:50:22 PM 38.8331 -79.5064 269° West 424 488 31,200 3,050 Climbing Washington Center
Thu 10:51:22 PM 38.8319 -79.6636 270° West 429 494 36,000 1,765 Climbing Washington Center
Thu 10:52:21 PM 38.8286 -79.8233 269° West 429 494 34,700  Descending Washington Center
Thu 10:53:22 PM 38.8256 -79.9672 268° West 421 484 36,000 650 Climbing Washington Center
Thu 10:54:21 PM 38.8203 -80.1081 267° West 409 471 36,000  Level Washington Center
Thu 10:55:36 PM 38.8147 -80.2675 267° West 402 463 36,000  Level Indianapolis Center
Thu 10:56:37 PM 38.8111 -80.4128 268° West 407 468 36,000  Level Indianapolis Center
Thu 10:57:39 PM 38.8078 -80.5586 268° West 411 473 36,000  Level Indianapolis Center
Thu 10:58:40 PM 38.8033 -80.7061 268° West 413 475 36,000  Level Indianapolis Center
Thu 10:59:41 PM 38.7981 -80.8522 267° West 411 473 36,000  Level Indianapolis Center
Thu 11:00:42 PM 38.8106 -80.9983 276° West 418 481 36,000  Level Indianapolis Center
Thu 11:01:43 PM 38.8314 -81.1708 279° West 412 474 36,000  Level Indianapolis Center
Thu 11:02:44 PM 38.8492 -81.3147 279° West 413 475 36,000  Level Indianapolis Center
Thu 11:03:46 PM 38.8664 -81.4572 279° West 410 472 36,000  Level Indianapolis Center
Thu 11:04:47 PM 38.8839 -81.6003 279° West 412 474 36,000  Level Indianapolis Center
Thu 11:05:48 PM 38.9022 -81.7433 279° West 410 472 36,000  Level Indianapolis Center
Thu 11:06:49 PM 38.9183 -81.8878 278° West 411 473 36,000  Level Indianapolis Center
Thu 11:07:50 PM 38.9189 -82.0331 270° West 408 470 36,000  Level Indianapolis Center
Thu 11:08:52 PM 38.9003 -82.2064 262° West 410 472 36,000  Level Indianapolis Center
Thu 11:09:53 PM 38.8839 -82.3511 262° West 411 473 36,000  Level Indianapolis Center
Thu 11:10:54 PM 38.8672 -82.4975 262° West 414 476 36,000  Level Indianapolis Center
Thu 11:11:55 PM 38.8508 -82.6422 262° West 413 475 36,000  Level Indianapolis Center
Thu 11:12:56 PM 38.8344 -82.7878 262° West 412 474 36,000  Level Indianapolis Center
Thu 11:13:58 PM 38.8167 -82.9331 261° West 413 475 36,000  Level Indianapolis Center
Thu 11:14:59 PM 38.7994 -83.0800 261° West 415 478 36,000  Level Indianapolis Center
Thu 11:16:00 PM 38.7822 -83.2314 262° West 416 479 36,000  Level Indianapolis Center
Thu 11:17:01 PM 38.7639 -83.3783 261° West 414 476 36,000  Level Indianapolis Center
Thu 11:18:02 PM 38.7467 -83.5250 261° West 413 475 36,000  Level Indianapolis Center
Thu 11:19:04 PM 38.7289 -83.6731 261° West 414 476 36,000  Level Indianapolis Center
Thu 11:20:05 PM 38.7111 -83.8214 261° West 417 480 36,000  Level Indianapolis Center
Thu 11:21:06 PM 38.6936 -83.9686 261° West 415 478 36,000  Level Indianapolis Center
Thu 11:22:07 PM 38.6742 -84.1158 260° West 416 479 36,000  Level Indianapolis Center
Thu 11:23:08 PM 38.6553 -84.2633 261° West 416 479 36,000  Level Indianapolis Center
Thu 11:24:09 PM 38.6539 -84.4131 269° West 418 481 36,000  Level Indianapolis Center
Thu 11:25:11 PM 38.6661 -84.5789 275° West 420 483 36,000  Level Indianapolis Center
Thu 11:26:12 PM 38.6744 -84.7303 274° West 422 486 36,000  Level Indianapolis Center
Thu 11:27:13 PM 38.6831 -84.8814 274° West 422 486 36,000  Level Indianapolis Center
Thu 11:28:14 PM 38.6908 -85.0331 274° West 424 488 36,000  Level Indianapolis Center
Thu 11:29:15 PM 38.6989 -85.1850 274° West 423 487 36,000  Level Indianapolis Center
Thu 11:30:17 PM 38.7083 -85.3367 275° West 423 487 36,000  Level Indianapolis Center
Thu 11:31:18 PM 38.7147 -85.4878 273° West 423 487 36,000  Level Indianapolis Center
Thu 11:32:19 PM 38.7228 -85.6369 274° West 418 481 36,000  Level Indianapolis Center
Thu 11:33:20 PM 38.7308 -85.7867 274° West 416 479 36,000  Level Indianapolis Center
Thu 11:34:21 PM 38.7369 -85.9383 273° West 415 478 36,000  Level Indianapolis Center
Thu 11:35:22 PM 38.7444 -86.0861 274° West 415 478 36,000  Level Indianapolis Center
Thu 11:36:24 PM 38.7506 -86.2333 273° West 414 476 36,000  Level Indianapolis Center
Thu 11:37:25 PM 38.7567 -86.3814 273° West 415 478 36,000  Level Indianapolis Center
Thu 11:38:26 PM 38.7558 -86.5294 270° West 418 481 36,000  Level Indianapolis Center
Thu 11:39:27 PM 38.7458 -86.6781 265° West 419 482 36,000  Level Indianapolis Center
Thu 11:40:28 PM 38.7372 -86.8258 266° West 418 481 36,000  Level Indianapolis Center
Thu 11:41:29 PM 38.7256 -87.0042 265° West 421 484 36,000  Level Indianapolis Center
Thu 11:42:30 PM 38.7167 -87.1528 266° West 421 484 36,000  Level Indianapolis Center
Thu 11:43:31 PM 38.7067 -87.3011 265° West 420 483 36,000  Level Indianapolis Center
Thu 11:44:32 PM 38.6964 -87.4486 265° West 419 482 36,000  Level Indianapolis Center
Thu 11:45:33 PM 38.6869 -87.5981 265° West 422 486 36,000  Level Indianapolis Center
Thu 11:46:34 PM 38.6767 -87.7464 265° West 421 484 36,000  Level Indianapolis Center
Thu 11:47:36 PM 38.6669 -87.8961 265° West 421 484 36,000  Level Indianapolis Center
Thu 11:48:37 PM 38.6561 -88.0467 265° West 425 489 36,000  Level Indianapolis Center
Thu 11:49:38 PM 38.6453 -88.1983 265° West 426 490 36,000  Level Indianapolis Center
Thu 11:50:39 PM 38.6336 -88.3503 264° West 429 494 36,000  Level Indianapolis Center
Thu 11:51:40 PM 38.6228 -88.5036 265° West 429 494 36,000  Level Kansas City Center
Thu 11:52:44 PM 38.6097 -88.6622 264° West 432 497 36,000  Level Kansas City Center
Thu 11:53:45 PM 38.5956 -88.8422 264° West 439 505 36,000  Level Kansas City Center
Thu 11:54:46 PM 38.5833 -88.9961 264° West 437 503 36,000  Level Kansas City Center
Thu 11:55:47 PM 38.5714 -89.1497 264° West 437 503 36,000  Level Kansas City Center
Thu 11:56:47 PM 38.5589 -89.3033 264° West 436 502 36,000  Level Kansas City Center
Thu 11:57:49 PM 38.5453 -89.4686 264° West 435 501 36,000  Level Kansas City Center
Thu 11:58:50 PM 38.5331 -89.6211 264° West 433 498 36,000  Level Kansas City Center
Thu 11:59:51 PM 38.5211 -89.7672 264° West 428 493 36,000  Level Kansas City Center
Fri 12:00:51 AM 38.5075 -89.9225 264° West 434 499 36,000  Level Kansas City Center
Fri 12:01:52 AM 38.4947 -90.0775 264° West 435 501 36,000  Level Kansas City Center
Fri 12:02:53 AM 38.4872 -90.2344 267° West 438 504 36,000  Level Kansas City Center
Fri 12:03:52 AM 38.4772 -90.3836 265° West 435 501 36,000  Level Kansas City Center
Fri 12:04:53 AM 38.4681 -90.5392 266° West 436 502 36,000  Level Kansas City Center
Fri 12:05:54 AM 38.4561 -90.7044 265° West 438 504 36,000  Level Kansas City Center
Fri 12:06:57 AM 38.4456 -90.8606 265° West 439 505 36,000  Level Kansas City Center
Fri 12:07:59 AM 38.4356 -91.0169 265° West 441 507 36,000  Level Kansas City Center
Fri 12:08:57 AM 38.4256 -91.1719 265° West 440 506 36,000  Level Kansas City Center
Fri 12:09:58 AM 38.4147 -91.3278 265° West 441 507 36,000  Level Kansas City Center
Fri 12:11:01 AM 38.4044 -91.5039 266° West 438 504 36,000  Level Kansas City Center
Fri 12:12:00 AM 38.3928 -91.6600 265° West 440 506 36,000  Level Kansas City Center
Fri 12:13:01 AM 38.3819 -91.8156 265° West 441 507 36,000  Level Kansas City Center
Fri 12:14:04 AM 38.3700 -91.9714 264° West 442 509 36,000  Level Kansas City Center
Fri 12:15:03 AM 38.3569 -92.1303 264° West 448 516 36,000  Level Kansas City Center
Fri 12:16:06 AM 38.3444 -92.2883 264° West 450 518 36,000  Level Kansas City Center
Fri 12:17:05 AM 38.3325 -92.4464 265° West 450 518 36,000  Level Kansas City Center
Fri 12:18:08 AM 38.3200 -92.6031 264° West 449 517 36,000  Level Kansas City Center
Fri 12:19:07 AM 38.3069 -92.7606 264° West 449 517 36,000  Level Kansas City Center
Fri 12:20:08 AM 38.2939 -92.9161 264° West 446 513 36,000  Level Kansas City Center
Fri 12:21:11 AM 38.2783 -93.1053 264° West 449 517 36,000  Level Kansas City Center
Fri 12:22:09 AM 38.2658 -93.2619 264° West 446 513 36,000  Level Kansas City Center
Fri 12:23:13 AM 38.2519 -93.4183 264° West 446 513 36,000  Level Kansas City Center
Fri 12:24:11 AM 38.2389 -93.5739 264° West 443 510 36,000  Level Kansas City Center
Fri 12:25:12 AM 38.2236 -93.7289 263° West 441 507 36,000  Level Kansas City Center
Fri 12:26:13 AM 38.2106 -93.8847 264° West 443 510 36,000  Level Kansas City Center
Fri 12:27:14 AM 38.1908 -94.0394 261° West 441 507 36,000  Level Kansas City Center
Fri 12:28:15 AM 38.1661 -94.1869 258° West 444 511 36,000  Level Kansas City Center
Fri 12:29:17 AM 38.1425 -94.3364 259° West 448 516 36,000  Level Kansas City Center
Fri 12:30:18 AM 38.1144 -94.5108 258° West 450 518 36,000  Level Kansas City Center
Fri 12:31:19 AM 38.0911 -94.6611 259° West 452 520 36,000  Level Kansas City Center
Fri 12:32:19 AM 38.0658 -94.8106 258° West 452 520 36,000  Level Kansas City Center
Fri 12:33:20 AM 38.0375 -94.9878 259° West 455 524 36,000  Level Kansas City Center
Fri 12:34:21 AM 38.0125 -95.1414 258° West 462 532 36,000  Level Kansas City Center
Fri 12:35:21 AM 37.9872 -95.2947 258° West 464 534 36,000  Level Kansas City Center
Fri 12:36:23 AM 37.9569 -95.4719 258° West 461 531 36,000  Level Kansas City Center
Fri 12:37:20 AM 37.9325 -95.6150 258° West 459 528 36,000  Level Kansas City Center
Fri 12:38:24 AM 37.9056 -95.7706 258° West 456 525 36,000  Level Kansas City Center
Fri 12:39:24 AM 37.8783 -95.9314 258° West 463 533 36,000  Level Kansas City Center
Fri 12:40:25 AM 37.8461 -96.1178 258° West 461 531 36,000  Level Kansas City Center
Fri 12:41:23 AM 37.8183 -96.2722 257° West 462 532 36,000  Level Kansas City Center
Fri 12:42:26 AM 37.7906 -96.4297 257° West 460 529 36,000  Level Kansas City Center
Fri 12:43:25 AM 37.7628 -96.5875 257° West 460 529 36,000  Level Kansas City Center
Fri 12:44:27 AM 37.7347 -96.7456 257° West 461 531 36,000  Level Kansas City Center
Fri 12:45:28 AM 37.7061 -96.9047 257° West 465 535 36,000  Level Kansas City Center
Fri 12:46:28 AM 37.6764 -97.0636 257° West 463 533 36,000  Level Kansas City Center
Fri 12:47:28 AM 37.6478 -97.2225 257° West 464 534 36,000  Level Kansas City Center
Fri 12:48:29 AM 37.6183 -97.3808 257° West 462 532 36,000  Level Kansas City Center
Fri 12:49:30 AM 37.5881 -97.5392 256° West 462 532 36,000  Level Kansas City Center
Fri 12:50:31 AM 37.5578 -97.7019 257° West 461 531 36,000  Level Kansas City Center
Fri 12:51:30 AM 37.5281 -97.8550 256° West 460 529 36,000  Level Kansas City Center
Fri 12:52:31 AM 37.4964 -98.0106 256° West 457 526 36,000  Level Kansas City Center
Fri 12:53:33 AM 37.4531 -98.1647 251° West 463 533 36,000  Level Kansas City Center
Fri 12:54:35 AM 37.4064 -98.3164 249° West 464 534 36,000  Level Kansas City Center
Fri 12:55:34 AM 37.3611 -98.4672 249° West 462 532 36,000  Level Kansas City Center
Fri 12:56:34 AM 37.3156 -98.6175 249° West 460 529 36,000  Level Kansas City Center
Fri 12:57:35 AM 37.2697 -98.7672 249° West 460 529 36,000  Level Kansas City Center
Fri 12:58:36 AM 37.2244 -98.9161 249° West 457 526 36,000  Level Kansas City Center
Fri 12:59:38 AM 37.1792 -99.0644 249° West 457 526 36,000  Level Kansas City Center
Fri 01:00:36 AM 37.1328 -99.2153 249° West 453 521 36,000  Level Kansas City Center
Fri 01:01:36 AM 37.0867 -99.3619 249° West 453 521 36,000  Level Kansas City Center
Fri 01:02:38 AM 37.0372 -99.5183 248° West 451 519 36,000  Level Kansas City Center
Fri 01:03:38 AM 36.9953 -99.6522 249° West 449 517 36,000  Level Kansas City Center
Fri 01:04:39 AM 36.9494 -99.7983 249° West 450 518 36,000  Level Kansas City Center
Fri 01:05:38 AM 36.9039 -99.9419 248° West 448 516 36,000  Level Kansas City Center
Fri 01:06:40 AM 36.8550 -100.0961 248° West 445 512 36,000  Level Kansas City Center
Fri 01:07:40 AM 36.8114 -100.2319 248° West 442 509 36,000  Level Kansas City Center
Fri 01:08:41 AM 36.7606 -100.3906 248° West 440 506 36,000  Level Kansas City Center
Fri 01:09:43 AM 36.7217 -100.5253 250° West 435 501 36,000  Level Kansas City Center
Fri 01:10:41 AM 36.6947 -100.6642 256° West 431 496 36,000  Level Kansas City Center
Fri 01:11:45 AM 36.6694 -100.8017 257° West 426 490 36,000  Level Kansas City Center
Fri 01:12:42 AM 36.6378 -100.9606 256° West 424 488 36,000  Level Kansas City Center
Fri 01:13:44 AM 36.6108 -101.0972 256° West 424 488 36,000  Level Kansas City Center
Fri 01:14:44 AM 36.5847 -101.2319 256° West 422 486 36,000  Level Albuquerque Center
Fri 01:15:44 AM 36.5536 -101.3922 256° West 425 489 36,000  Level Albuquerque Center
Fri 01:16:45 AM 36.5275 -101.5256 256° West 420 483 36,000  Level Albuquerque Center
Fri 01:17:46 AM 36.4978 -101.6692 256° West 418 481 36,000  Level Albuquerque Center
Fri 01:18:46 AM 36.4697 -101.8094 256° West 421 484 36,000  Level Albuquerque Center
Fri 01:19:47 AM 36.4408 -101.9486 256° West 419 482 36,000  Level Albuquerque Center
Fri 01:20:48 AM 36.4114 -102.0878 255° West 419 482 36,000  Level Albuquerque Center
Fri 01:21:48 AM 36.3831 -102.2286 256° West 421 484 36,000  Level Albuquerque Center
Fri 01:22:49 AM 36.3533 -102.3694 255° West 424 488 36,000  Level Albuquerque Center
Fri 01:23:49 AM 36.3244 -102.5100 256° West 424 488 36,000  Level Albuquerque Center
Fri 01:24:50 AM 36.2944 -102.6508 255° West 424 488 36,000  Level Albuquerque Center
Fri 01:25:50 AM 36.2647 -102.7903 255° West 423 487 36,000  Level Albuquerque Center
Fri 01:26:51 AM 36.2317 -102.9453 255° West 421 484 36,000  Level Albuquerque Center
Fri 01:27:51 AM 36.2014 -103.0861 255° West 420 483 36,000  Level Albuquerque Center
Fri 01:28:52 AM 36.1700 -103.2267 255° West 420 483 36,000  Level Albuquerque Center
Fri 01:29:52 AM 36.1406 -103.3672 255° West 421 484 36,000  Level Albuquerque Center
Fri 01:30:53 AM 36.1094 -103.5072 255° West 419 482 36,000  Level Albuquerque Center
Fri 01:31:53 AM 36.0786 -103.6458 255° West 417 480 36,000  Level Albuquerque Center
Fri 01:32:54 AM 36.0483 -103.7864 255° West 419 482 36,000  Level Albuquerque Center
Fri 01:33:54 AM 36.0156 -103.9253 254° West 420 483 36,000  Level Albuquerque Center
Fri 01:34:55 AM 35.9850 -104.0656 255° West 421 484 36,000  Level Albuquerque Center
Fri 01:35:56 AM 35.9583 -104.2061 257° West 420 483 36,000  Level Albuquerque Center
Fri 01:36:56 AM 35.9294 -104.3461 256° West 420 483 36,000  Level Albuquerque Center
Fri 01:37:57 AM 35.9019 -104.4867 256° West 419 482 36,000  Level Albuquerque Center
Fri 01:38:57 AM 35.8725 -104.6258 255° West 419 482 36,000  Level Albuquerque Center
Fri 01:39:57 AM 35.8439 -104.7664 256° West 420 483 36,000  Level Albuquerque Center
Fri 01:40:58 AM 35.8153 -104.9061 256° West 419 482 36,000  Level Albuquerque Center
Fri 01:41:58 AM 35.7861 -105.0444 255° West 416 479 36,000  Level Albuquerque Center
Fri 01:42:59 AM 35.7553 -105.1842 255° West 419 482 36,000  Level Albuquerque Center
Fri 01:43:59 AM 35.7253 -105.3233 255° West 418 481 36,000  Level Albuquerque Center
Fri 01:45:00 AM 35.6961 -105.4614 255° West 416 479 36,000  Level Albuquerque Center
Fri 01:46:00 AM 35.6717 -105.5772 255° West 412 474 36,000  Level Albuquerque Center
Fri 01:47:01 AM 35.6375 -105.7369 255° West 405 466 36,000  Level Albuquerque Center
Fri 01:48:01 AM 35.6108 -105.8633 255° West 399 459 36,000  Level Albuquerque Center
Fri 01:49:02 AM 35.5803 -105.9997 255° West 400 460 36,000  Level Albuquerque Center
Fri 01:50:02 AM 35.5517 -106.1331 255° West 403 464 36,000  Level Albuquerque Center
Fri 01:51:03 AM 35.5225 -106.2669 255° West 406 467 36,000  Level Albuquerque Center
Fri 01:52:03 AM 35.4936 -106.4006 255° West 408 470 36,000  Level Albuquerque Center
Fri 01:53:04 AM 35.4639 -106.5339 255° West 406 467 36,000  Level Albuquerque Center
Fri 01:54:04 AM 35.4367 -106.6664 256° West 406 467 36,000  Level Albuquerque Center
Fri 01:55:04 AM 35.4206 -106.8017 262° West 404 465 36,000  Level Albuquerque Center
Fri 01:56:05 AM 35.4050 -106.9378 262° West 406 467 36,000  Level Albuquerque Center
Fri 01:57:05 AM 35.3886 -107.0714 261° West 402 463 36,000  Level Albuquerque Center
Fri 01:58:06 AM 35.3728 -107.2042 262° West 400 460 36,000  Level Albuquerque Center
Fri 01:59:06 AM 35.3558 -107.3417 261° West 407 468 36,000  Level Albuquerque Center
Fri 02:00:07 AM 35.3397 -107.4772 262° West 405 466 36,000  Level Albuquerque Center
Fri 02:01:07 AM 35.3197 -107.6361 261° West 405 466 36,000  Level Albuquerque Center
Fri 02:02:07 AM 35.3033 -107.7667 261° West 404 465 36,000  Level Albuquerque Center
Fri 02:03:08 AM 35.2867 -107.8989 261° West 407 468 36,000  Level Albuquerque Center
Fri 02:04:08 AM 35.2711 -108.0311 262° West 408 470 36,000  Level Albuquerque Center
Fri 02:05:09 AM 35.2536 -108.1858 262° West 410 472 36,000  Level Albuquerque Center
Fri 02:06:09 AM 35.2381 -108.3175 262° West 408 470 36,000  Level Albuquerque Center
Fri 02:07:09 AM 35.2222 -108.4525 262° West 413 475 36,000  Level Albuquerque Center
Fri 02:08:10 AM 35.2022 -108.6072 261° West 413 475 36,000  Level Albuquerque Center
Fri 02:09:10 AM 35.1878 -108.7403 262° West 412 474 36,000  Level Albuquerque Center
Fri 02:10:10 AM 35.1717 -108.8719 262° West 410 472 36,000  Level Albuquerque Center
Fri 02:11:11 AM 35.1553 -109.0050 261° West 409 471 36,000  Level Albuquerque Center
Fri 02:12:11 AM 35.1369 -109.1603 262° West 410 472 36,000  Level Albuquerque Center
Fri 02:13:11 AM 35.1194 -109.2922 261° West 411 473 36,000  Level Albuquerque Center
Fri 02:14:12 AM 35.1044 -109.4253 262° West 412 474 36,000  Level Albuquerque Center
Fri 02:15:12 AM 35.0847 -109.5544 259° West 406 467 36,000  Level Albuquerque Center
Fri 02:16:12 AM 35.0650 -109.7081 261° West 407 468 36,000  Level Albuquerque Center
Fri 02:17:13 AM 35.0478 -109.8400 261° West 410 472 36,000  Level Albuquerque Center
Fri 02:18:13 AM 35.0308 -109.9722 261° West 411 473 36,000  Level Albuquerque Center
Fri 02:19:13 AM 35.0108 -110.1269 261° West 413 475 36,000  Level Albuquerque Center
Fri 02:20:14 AM 34.9931 -110.2581 261° West 411 473 36,000  Level Albuquerque Center
Fri 02:21:14 AM 34.9742 -110.3889 260° West 410 472 36,000  Level Albuquerque Center
Fri 02:22:14 AM 34.9553 -110.5175 260° West 407 468 36,000  Level Albuquerque Center
Fri 02:23:15 AM 34.9333 -110.6692 260° West 406 467 36,000  Level Albuquerque Center
Fri 02:24:15 AM 34.9161 -110.7864 260° West 405 466 36,000  Level Albuquerque Center
Fri 02:25:15 AM 34.8972 -110.9203 260° West 403 464 36,000  Level Albuquerque Center
Fri 02:26:16 AM 34.8792 -111.0531 261° West 401 461 36,000  Level Albuquerque Center
Fri 02:27:16 AM 34.8608 -111.1897 261° West 406 467 36,000  Level Albuquerque Center
Fri 02:28:16 AM 34.8417 -111.3214 260° West 400 460 36,000  Level Albuquerque Center
Fri 02:29:17 AM 34.8225 -111.4539 260° West 400 460 36,000  Level Albuquerque Center
Fri 02:30:17 AM 34.8031 -111.5867 260° West 401 461 36,000  Level Albuquerque Center
Fri 02:31:17 AM 34.7811 -111.7367 260° West 405 466 36,000  Level Albuquerque Center
Fri 02:32:18 AM 34.7611 -111.8733 260° West 409 471 36,000  Level Albuquerque Center
Fri 02:33:18 AM 34.7386 -112.0194 259° West 409 471 36,000  Level Albuquerque Center
Fri 02:34:18 AM 34.7183 -112.1547 260° West 409 471 36,000  Level Albuquerque Center
Fri 02:35:19 AM 34.6978 -112.2894 260° West 409 471 36,000  Level Albuquerque Center
Fri 02:36:19 AM 34.6789 -112.4147 260° West 408 470 36,000  Level Albuquerque Center
Fri 02:37:19 AM 34.6581 -112.5494 259° West 408 470 36,000  Level Albuquerque Center
Fri 02:38:20 AM 34.6372 -112.6844 259° West 408 470 36,000  Level Albuquerque Center
Fri 02:39:20 AM 34.6158 -112.8192 259° West 408 470 36,000  Level Albuquerque Center
Fri 02:40:20 AM 34.5953 -112.9533 259° West 407 468 36,000  Level Albuquerque Center
Fri 02:41:21 AM 34.5733 -113.0886 259° West 407 468 36,000  Level Albuquerque Center
Fri 02:42:21 AM 34.5519 -113.2231 259° West 407 468 36,000  Level Albuquerque Center
Fri 02:43:21 AM 34.5294 -113.3567 258° West 407 468 36,000  Level Albuquerque Center
Fri 02:44:22 AM 34.5067 -113.4936 259° West 412 474 36,000  Level Albuquerque Center
Fri 02:45:22 AM 34.4819 -113.6472 259° West 411 473 36,000  Level Albuquerque Center
Fri 02:46:22 AM 34.4583 -113.7833 258° West 411 473 36,000  Level Albuquerque Center
Fri 02:47:23 AM 34.4361 -113.9211 259° West 414 476 36,000  Level Albuquerque Center
Fri 02:48:23 AM 34.4175 -114.0586 261° West 414 476 36,000  Level Albuquerque Center
Fri 02:49:23 AM 34.3994 -114.1950 261° West 412 474 36,000  Level Albuquerque Center
Fri 02:49:46 AM 34.3947 -114.2411 263° West 412 474 36,000 -71 Level Los Angeles Center
Fri 02:50:47 AM 34.3747 -114.3783 260° West 415 478 35,900  Descending Los Angeles Center
Fri 02:51:48 AM 34.3564 -114.5144 261° West 413 475 36,000 50 Climbing Los Angeles Center
Fri 02:52:48 AM 34.3364 -114.6461 260° West 402 463 36,000  Level Los Angeles Center
Fri 02:53:49 AM 34.3167 -114.7822 260° West 409 471 36,000  Level Los Angeles Center
Fri 02:54:49 AM 34.2972 -114.9156 260° West 406 467 36,000 -50 Level Los Angeles Center
Fri 02:55:50 AM 34.2775 -115.0506 260° West 409 471 35,900  Descending Los Angeles Center
Fri 02:56:51 AM 34.2569 -115.1847 260° West 407 468 36,000 50 Climbing Los Angeles Center
Fri 02:57:51 AM 34.2375 -115.3206 260° West 410 472 36,000  Level Los Angeles Center
Fri 02:58:52 AM 34.2158 -115.4558 259° West 411 473 36,000  Level Los Angeles Center
Fri 02:59:52 AM 34.1908 -115.6194 260° West 412 474 36,000  Level Los Angeles Center
Fri 03:00:53 AM 34.1703 -115.7558 260° West 414 476 36,000 -50 Level Los Angeles Center
Fri 03:01:53 AM 34.1506 -115.8897 260° West 410 472 35,900  Descending Los Angeles Center
Fri 03:02:54 AM 34.1311 -116.0083 259° West 408 470 36,000 -149 Climbing Los Angeles Center
Fri 03:03:54 AM 34.1081 -116.1569 259° West 408 470 35,600 -1,636 Descending Los Angeles Center
Fri 03:04:55 AM 34.0872 -116.2922 260° West 412 474 32,700 -2,876 Descending Los Angeles Center
Fri 03:05:55 AM 34.0653 -116.4289 259° West 417 480 29,800 -2,579 Descending Los Angeles Center
Fri 03:06:56 AM 34.0444 -116.5608 259° West 406 467 27,500 -2,529 Descending Los Angeles Center
Fri 03:07:56 AM 34.0242 -116.6881 259° West 393 452 24,700 -2,727 Descending Los Angeles Center
Fri 03:08:57 AM 34.0036 -116.8178 259° West 395 455 22,000 -2,628 Descending Los Angeles Center
Fri 03:09:57 AM 33.9814 -116.9464 258° West 394 453 19,400 -2,700 Descending Los Angeles Center
Fri 03:10:17 AM 33.9667 -117.0000 252° West 385 443 18,400 -2,029 Descending Southern California TRACON
Fri 03:11:05 AM 33.9500 -117.1000 259° West 377 434 17,100 -1,353 Descending Southern California TRACON
Fri 03:11:59 AM 33.9500 -117.2167 270° West 353 406 16,100 -1,000 Descending Southern California TRACON
Fri 03:13:05 AM 33.9333 -117.3333 260° West 345 397 15,100 -1,350 Descending Southern California TRACON
Fri 03:13:59 AM 33.9500 -117.4333 281° West 340 391 13,400 -1,789 Descending Southern California TRACON
Fri 03:14:59 AM 33.9833 -117.5333 292° West 331 381 11,700 -1,778 Descending Southern California TRACON
Fri 03:15:47 AM 34.0167 -117.6167 296° West 375 432 10,200 -1,053 Descending Southern California TRACON
Fri 03:16:53 AM 34.0000 -117.7167 259° West 262 302 9,700 -909 Descending Southern California TRACON
Fri 03:17:59 AM 34.0000 -117.8167 270° West 268 308 8,200 -1,286 Descending Southern California TRACON
Fri 03:18:59 AM 33.9833 -117.9000 256° West 272 313 7,000 -1,158 Descending Southern California TRACON
Fri 03:19:53 AM 33.9833 -117.9833 270° West 231 266 6,000 -905 Descending Southern California TRACON
Fri 03:21:05 AM 33.9667 -118.0667 256° West 190 219 5,100 -810 Descending Southern California TRACON
Fri 03:21:59 AM 33.9667 -118.1167 270° West 185 213 4,300 -889 Descending Southern California TRACON
Fri 03:23:00 AM 33.9333 -118.2506 270° West  Level FlightAware Approximate
Fri 03:30:00 AM 33.9333 -118.4000 270° West  Level FlightAware Approximate
Fri 03:31:00 AM 33.9425 -118.4081 270° West  Level Estimated
Fri 03:32:00 AM 33.9425 -118.4081 270° West  Level Estimated

Login

Don't have an account? Register now (free) for customized features, flight alerts, and more!